sensor_id;sensor_type;location;lat;lon;timestamp;pressure;altitude;pressure_sealevel;temperature;humidity
61014;BME280;46899;47.542;19.082;2023-04-22T00:00:30;100248.62;;;10.15;91.42
61014;BME280;46899;47.542;19.082;2023-04-22T00:03:33;100248.47;;;10.19;91.75
61014;BME280;46899;47.542;19.082;2023-04-22T00:06:36;100253.63;;;10.21;91.90
61014;BME280;46899;47.542;19.082;2023-04-22T00:09:39;100253.63;;;10.21;91.70
61014;BME280;46899;47.542;19.082;2023-04-22T00:12:42;100250.31;;;10.16;91.83
61014;BME280;46899;47.542;19.082;2023-04-22T00:15:45;100253.84;;;10.15;91.97
61014;BME280;46899;47.542;19.082;2023-04-22T00:18:48;100253.72;;;10.18;92.55
61014;BME280;46899;47.542;19.082;2023-04-22T00:21:50;100257.53;;;10.32;92.87
61014;BME280;46899;47.542;19.082;2023-04-22T00:24:53;100255.53;;;10.16;93.50
61014;BME280;46899;47.542;19.082;2023-04-22T00:27:55;100252.25;;;10.09;94.03
61014;BME280;46899;47.542;19.082;2023-04-22T00:30:58;100249.06;;;10.01;94.29
61014;BME280;46899;47.542;19.082;2023-04-22T00:34:01;100246.69;;;9.95;94.98
61014;BME280;46899;47.542;19.082;2023-04-22T00:37:03;100254.63;;;9.91;95.94
61014;BME280;46899;47.542;19.082;2023-04-22T00:40:06;100252.34;;;9.82;96.71
61014;BME280;46899;47.542;19.082;2023-04-22T00:43:09;100250.16;;;9.70;96.77
61014;BME280;46899;47.542;19.082;2023-04-22T00:46:13;100258.19;;;9.62;97.69
61014;BME280;46899;47.542;19.082;2023-04-22T00:49:17;100249.06;;;9.50;98.33
61014;BME280;46899;47.542;19.082;2023-04-22T00:52:21;100237.91;;;9.47;98.51
61014;BME280;46899;47.542;19.082;2023-04-22T00:55:24;100246.00;;;9.38;99.20
61014;BME280;46899;47.542;19.082;2023-04-22T00:58:27;100255.00;;;9.26;100.00
61014;BME280;46899;47.542;19.082;2023-04-22T01:01:30;100256.91;;;9.21;99.75
61014;BME280;46899;47.542;19.082;2023-04-22T01:04:33;100265.75;;;9.16;100.00
61014;BME280;46899;47.542;19.082;2023-04-22T01:07:36;100261.72;;;9.06;100.00
61014;BME280;46899;47.542;19.082;2023-04-22T01:10:40;100266.06;;;9.05;100.00
61014;BME280;46899;47.542;19.082;2023-04-22T01:13:42;100267.84;;;9.03;100.00
61014;BME280;46899;47.542;19.082;2023-04-22T01:16:45;100268.94;;;8.96;100.00
61014;BME280;46899;47.542;19.082;2023-04-22T01:19:48;100270.00;;;8.89;100.00
61014;BME280;46899;47.542;19.082;2023-04-22T01:22:50;100264.44;;;8.72;100.00
61014;BME280;46899;47.542;19.082;2023-04-22T01:25:55;100271.63;;;8.62;100.00
61014;BME280;46899;47.542;19.082;2023-04-22T01:29:00;100279.56;;;8.58;100.00
61014;BME280;46899;47.542;19.082;2023-04-22T01:32:03;100269.31;;;8.53;100.00
61014;BME280;46899;47.542;19.082;2023-04-22T01:35:06;100273.75;;;8.50;100.00
61014;BME280;46899;47.542;19.082;2023-04-22T01:38:09;100278.13;;;8.48;100.00
61014;BME280;46899;47.542;19.082;2023-04-22T01:41:12;100278.06;;;8.49;100.00
61014;BME280;46899;47.542;19.082;2023-04-22T01:44:17;100278.13;;;8.48;100.00
61014;BME280;46899;47.542;19.082;2023-04-22T01:47:21;100280.72;;;8.48;100.00
61014;BME280;46899;47.542;19.082;2023-04-22T01:50:23;100276.09;;;8.57;100.00
61014;BME280;46899;47.542;19.082;2023-04-22T01:53:26;100281.28;;;8.57;100.00
61014;BME280;46899;47.542;19.082;2023-04-22T01:56:29;100284.13;;;8.48;100.00
61014;BME280;46899;47.542;19.082;2023-04-22T01:59:31;100287.03;;;8.38;100.00
61014;BME280;46899;47.542;19.082;2023-04-22T02:02:34;100285.44;;;8.34;100.00
61014;BME280;46899;47.542;19.082;2023-04-22T02:05:37;100280.44;;;8.24;100.00
61014;BME280;46899;47.542;19.082;2023-04-22T02:08:39;100280.63;;;8.18;100.00
61014;BME280;46899;47.542;19.082;2023-04-22T02:11:42;100275.63;;;8.11;100.00
61014;BME280;46899;47.542;19.082;2023-04-22T02:14:44;100276.66;;;8.04;100.00
61014;BME280;46899;47.542;19.082;2023-04-22T02:17:50;100272.53;;;7.98;100.00
61014;BME280;46899;47.542;19.082;2023-04-22T02:20:52;100271.66;;;7.98;100.00
61014;BME280;46899;47.542;19.082;2023-04-22T02:23:55;100271.72;;;7.95;100.00
61014;BME280;46899;47.542;19.082;2023-04-22T02:26:57;100276.91;;;7.95;100.00
61014;BME280;46899;47.542;19.082;2023-04-22T02:30:01;100274.44;;;7.90;100.00
61014;BME280;46899;47.542;19.082;2023-04-22T02:33:05;100270.06;;;7.92;100.00
61014;BME280;46899;47.542;19.082;2023-04-22T02:36:08;100276.16;;;7.91;100.00
61014;BME280;46899;47.542;19.082;2023-04-22T02:39:10;100277.91;;;7.89;100.00
61014;BME280;46899;47.542;19.082;2023-04-22T02:42:13;100275.38;;;7.88;100.00
61014;BME280;46899;47.542;19.082;2023-04-22T02:45:16;100265.94;;;7.85;100.00
61014;BME280;46899;47.542;19.082;2023-04-22T02:48:19;100272.09;;;7.81;100.00
61014;BME280;46899;47.542;19.082;2023-04-22T02:51:21;100267.78;;;7.80;100.00
61014;BME280;46899;47.542;19.082;2023-04-22T02:54:24;100262.84;;;7.71;100.00
61014;BME280;46899;47.542;19.082;2023-04-22T02:57:26;100269.00;;;7.66;100.00
61014;BME280;46899;47.542;19.082;2023-04-22T03:00:29;100266.41;;;7.67;100.00
61014;BME280;46899;47.542;19.082;2023-04-22T03:03:32;100265.53;;;7.67;100.00
61014;BME280;46899;47.542;19.082;2023-04-22T03:06:35;100268.09;;;7.68;100.00
61014;BME280;46899;47.542;19.082;2023-04-22T03:09:37;100270.66;;;7.70;100.00
61014;BME280;46899;47.542;19.082;2023-04-22T03:12:40;100277.50;;;7.71;100.00
61014;BME280;46899;47.542;19.082;2023-04-22T03:15:43;100267.84;;;7.79;100.00
61014;BME280;46899;47.542;19.082;2023-04-22T03:18:45;100265.19;;;7.80;100.00
61014;BME280;46899;47.542;19.082;2023-04-22T03:21:48;100271.13;;;7.85;100.00
61014;BME280;46899;47.542;19.082;2023-04-22T03:24:50;100272.91;;;7.83;100.00
61014;BME280;46899;47.542;19.082;2023-04-22T03:27:53;100279.00;;;7.81;100.00
61014;BME280;46899;47.542;19.082;2023-04-22T03:30:56;100276.34;;;7.82;100.00
61014;BME280;46899;47.542;19.082;2023-04-22T03:33:58;100280.72;;;7.80;100.00
61014;BME280;46899;47.542;19.082;2023-04-22T03:37:01;100277.37;;;7.77;100.00
61014;BME280;46899;47.542;19.082;2023-04-22T03:40:04;100281.72;;;7.76;100.00
61014;BME280;46899;47.542;19.082;2023-04-22T03:43:08;100283.63;;;7.68;100.00
61014;BME280;46899;47.542;19.082;2023-04-22T03:46:10;100277.75;;;7.62;100.00
61014;BME280;46899;47.542;19.082;2023-04-22T03:49:13;100285.63;;;7.57;100.00
61014;BME280;46899;47.542;19.082;2023-04-22T03:52:16;100283.97;;;7.54;100.00
61014;BME280;46899;47.542;19.082;2023-04-22T03:55:20;100287.34;;;7.58;100.00
61014;BME280;46899;47.542;19.082;2023-04-22T03:58:23;100286.41;;;7.61;100.00
61014;BME280;46899;47.542;19.082;2023-04-22T04:01:27;100290.81;;;7.57;100.00
61014;BME280;46899;47.542;19.082;2023-04-22T04:04:30;100289.75;;;7.64;100.00
61014;BME280;46899;47.542;19.082;2023-04-22T04:07:34;100291.44;;;7.67;100.00
61014;BME280;46899;47.542;19.082;2023-04-22T04:10:37;100291.28;;;7.73;100.00
61014;BME280;46899;47.542;19.082;2023-04-22T04:13:40;100294.41;;;7.85;100.00
61014;BME280;46899;47.542;19.082;2023-04-22T04:16:43;100292.62;;;7.89;100.00
61014;BME280;46899;47.542;19.082;2023-04-22T04:19:46;100302.88;;;7.92;100.00
61014;BME280;46899;47.542;19.082;2023-04-22T04:22:49;100304.19;;;8.08;100.00
61014;BME280;46899;47.542;19.082;2023-04-22T04:25:52;100308.56;;;8.07;100.00
61014;BME280;46899;47.542;19.082;2023-04-22T04:28:56;100313.50;;;8.16;100.00
61014;BME280;46899;47.542;19.082;2023-04-22T04:31:58;100313.03;;;8.35;100.00
61014;BME280;46899;47.542;19.082;2023-04-22T04:35:02;100316.06;;;8.50;100.00
61014;BME280;46899;47.542;19.082;2023-04-22T04:38:04;100312.84;;;8.73;100.00
61014;BME280;46899;47.542;19.082;2023-04-22T04:41:08;100320.09;;;8.91;100.00
61014;BME280;46899;47.542;19.082;2023-04-22T04:44:12;100320.47;;;9.08;100.00
61014;BME280;46899;47.542;19.082;2023-04-22T04:47:15;100322.34;;;9.32;100.00
61014;BME280;46899;47.542;19.082;2023-04-22T04:50:18;100333.91;;;9.50;100.00
61014;BME280;46899;47.542;19.082;2023-04-22T04:53:24;100335.91;;;9.68;100.00
61014;BME280;46899;47.542;19.082;2023-04-22T04:56:28;100327.88;;;9.76;100.00
61014;BME280;46899;47.542;19.082;2023-04-22T04:59:32;100325.59;;;9.93;100.00
61014;BME280;46899;47.542;19.082;2023-04-22T05:02:35;100327.59;;;10.11;100.00
61014;BME280;46899;47.542;19.082;2023-04-22T05:05:39;100330.75;;;10.20;100.00
61014;BME280;46899;47.542;19.082;2023-04-22T05:08:42;100332.25;;;10.27;100.00
61014;BME280;46899;47.542;19.082;2023-04-22T05:11:44;100328.34;;;10.41;100.00
61014;BME280;46899;47.542;19.082;2023-04-22T05:14:48;100333.25;;;10.48;100.00
61014;BME280;46899;47.542;19.082;2023-04-22T05:17:51;100331.78;;;10.41;100.00
61014;BME280;46899;47.542;19.082;2023-04-22T05:20:54;100337.84;;;10.42;100.00
61014;BME280;46899;47.542;19.082;2023-04-22T05:23:57;100340.09;;;10.51;100.00
61014;BME280;46899;47.542;19.082;2023-04-22T05:26:59;100340.62;;;10.60;99.34
61014;BME280;46899;47.542;19.082;2023-04-22T05:30:03;100339.75;;;10.61;99.27
61014;BME280;46899;47.542;19.082;2023-04-22T05:33:07;100337.56;;;10.74;99.51
61014;BME280;46899;47.542;19.082;2023-04-22T05:36:10;100342.03;;;10.93;94.19
61014;BME280;46899;47.542;19.082;2023-04-22T05:39:13;100346.22;;;10.97;97.08
61014;BME280;46899;47.542;19.082;2023-04-22T05:42:17;100341.53;;;11.07;93.13
61014;BME280;46899;47.542;19.082;2023-04-22T05:45:20;100346.75;;;11.30;90.44
61014;BME280;46899;47.542;19.082;2023-04-22T05:48:23;100346.06;;;11.70;86.61
61014;BME280;46899;47.542;19.082;2023-04-22T05:51:27;100352.91;;;12.36;82.75
61014;BME280;46899;47.542;19.082;2023-04-22T05:54:30;100356.56;;;12.91;79.51
61014;BME280;46899;47.542;19.082;2023-04-22T05:57:32;100353.62;;;13.19;75.16
61014;BME280;46899;47.542;19.082;2023-04-22T06:00:36;100353.13;;;13.29;74.28
61014;BME280;46899;47.542;19.082;2023-04-22T06:03:40;100359.28;;;13.28;71.37
61014;BME280;46899;47.542;19.082;2023-04-22T06:06:43;100348.84;;;14.00;69.82
61014;BME280;46899;47.542;19.082;2023-04-22T06:09:47;100354.56;;;16.18;59.13
61014;BME280;46899;47.542;19.082;2023-04-22T06:12:49;100363.16;;;17.08;52.46
61014;BME280;46899;47.542;19.082;2023-04-22T06:15:52;100359.59;;;18.96;47.93
61014;BME280;46899;47.542;19.082;2023-04-22T06:18:55;100362.22;;;20.98;41.01
61014;BME280;46899;47.542;19.082;2023-04-22T06:21:58;100360.97;;;22.43;36.29
61014;BME280;46899;47.542;19.082;2023-04-22T06:25:00;100361.09;;;23.34;34.58
61014;BME280;46899;47.542;19.082;2023-04-22T06:28:03;100358.91;;;24.07;33.24
61014;BME280;46899;47.542;19.082;2023-04-22T06:31:07;100365.09;;;24.36;31.60
61014;BME280;46899;47.542;19.082;2023-04-22T06:34:10;100361.78;;;26.26;28.40
61014;BME280;46899;47.542;19.082;2023-04-22T06:37:12;100365.50;;;29.47;24.29
61014;BME280;46899;47.542;19.082;2023-04-22T06:40:15;100359.72;;;30.80;21.65
61014;BME280;46899;47.542;19.082;2023-04-22T06:43:21;100357.69;;;32.48;20.24
61014;BME280;46899;47.542;19.082;2023-04-22T06:46:30;100361.59;;;33.28;18.75
61014;BME280;46899;47.542;19.082;2023-04-22T06:49:33;100362.69;;;33.74;18.32
61014;BME280;46899;47.542;19.082;2023-04-22T06:52:40;100358.22;;;34.14;17.70
61014;BME280;46899;47.542;19.082;2023-04-22T06:55:43;100353.28;;;34.64;17.18
61014;BME280;46899;47.542;19.082;2023-04-22T06:58:46;100344.94;;;34.39;17.78
61014;BME280;46899;47.542;19.082;2023-04-22T07:01:48;100349.06;;;34.94;17.24
61014;BME280;46899;47.542;19.082;2023-04-22T07:04:52;100352.50;;;35.53;16.64
61014;BME280;46899;47.542;19.082;2023-04-22T07:07:54;100347.91;;;35.98;16.30
61014;BME280;46899;47.542;19.082;2023-04-22T07:10:58;100353.09;;;36.00;16.14
61014;BME280;46899;47.542;19.082;2023-04-22T07:14:01;100346.47;;;36.76;15.19
61014;BME280;46899;47.542;19.082;2023-04-22T07:17:04;100351.34;;;37.29;14.68
61014;BME280;46899;47.542;19.082;2023-04-22T07:20:06;100355.37;;;36.34;15.00
61014;BME280;46899;47.542;19.082;2023-04-22T07:23:09;100358.03;;;36.65;14.91
61014;BME280;46899;47.542;19.082;2023-04-22T07:26:12;100363.34;;;37.21;13.39
61014;BME280;46899;47.542;19.082;2023-04-22T07:29:14;100362.00;;;36.38;14.16
61014;BME280;46899;47.542;19.082;2023-04-22T07:32:17;100362.94;;;36.75;14.96
61014;BME280;46899;47.542;19.082;2023-04-22T07:35:20;100354.50;;;36.65;14.26
61014;BME280;46899;47.542;19.082;2023-04-22T07:38:23;100361.09;;;37.00;14.05
61014;BME280;46899;47.542;19.082;2023-04-22T07:41:26;100361.00;;;35.57;14.68
61014;BME280;46899;47.542;19.082;2023-04-22T07:44:28;100356.16;;;34.49;14.87
61014;BME280;46899;47.542;19.082;2023-04-22T07:47:31;100360.09;;;34.99;14.60
61014;BME280;46899;47.542;19.082;2023-04-22T07:50:33;100361.84;;;33.33;15.80
61014;BME280;46899;47.542;19.082;2023-04-22T07:53:38;100357.16;;;33.14;15.80
61014;BME280;46899;47.542;19.082;2023-04-22T07:56:41;100351.53;;;30.96;17.76
61014;BME280;46899;47.542;19.082;2023-04-22T07:59:44;100350.09;;;29.80;18.86
61014;BME280;46899;47.542;19.082;2023-04-22T08:02:47;100349.37;;;29.08;20.13
61014;BME280;46899;47.542;19.082;2023-04-22T08:05:50;100350.94;;;28.55;20.53
61014;BME280;46899;47.542;19.082;2023-04-22T08:08:52;100346.94;;;28.42;20.71
61014;BME280;46899;47.542;19.082;2023-04-22T08:11:55;100347.09;;;28.41;20.19
61014;BME280;46899;47.542;19.082;2023-04-22T08:14:58;100347.03;;;29.52;19.38
61014;BME280;46899;47.542;19.082;2023-04-22T08:18:01;100346.59;;;28.78;19.81
61014;BME280;46899;47.542;19.082;2023-04-22T08:21:04;100342.78;;;27.32;20.78
61014;BME280;46899;47.542;19.082;2023-04-22T08:24:06;100349.94;;;28.31;20.16
61014;BME280;46899;47.542;19.082;2023-04-22T08:27:09;100342.81;;;30.94;17.96
61014;BME280;46899;47.542;19.082;2023-04-22T08:30:13;100343.66;;;31.09;17.82
61014;BME280;46899;47.542;19.082;2023-04-22T08:33:16;100343.47;;;32.32;16.15
61014;BME280;46899;47.542;19.082;2023-04-22T08:36:18;100350.31;;;32.84;15.71
61014;BME280;46899;47.542;19.082;2023-04-22T08:39:24;100352.50;;;33.29;15.63
61014;BME280;46899;47.542;19.082;2023-04-22T08:42:26;100347.22;;;32.87;15.58
61014;BME280;46899;47.542;19.082;2023-04-22T08:45:29;100342.59;;;31.90;16.54
61014;BME280;46899;47.542;19.082;2023-04-22T08:48:32;100344.09;;;30.46;17.69
61014;BME280;46899;47.542;19.082;2023-04-22T08:51:35;100341.81;;;29.20;18.80
61014;BME280;46899;47.542;19.082;2023-04-22T08:54:38;100340.88;;;28.08;19.77
61014;BME280;46899;47.542;19.082;2023-04-22T08:57:40;100334.03;;;26.80;21.06
61014;BME280;46899;47.542;19.082;2023-04-22T09:00:43;100328.41;;;27.59;20.81
61014;BME280;46899;47.542;19.082;2023-04-22T09:03:46;100334.34;;;26.77;21.06
61014;BME280;46899;47.542;19.082;2023-04-22T09:06:50;100334.44;;;27.27;20.62
61014;BME280;46899;47.542;19.082;2023-04-22T09:09:55;100331.41;;;26.10;21.50
61014;BME280;46899;47.542;19.082;2023-04-22T09:12:58;100326.03;;;25.30;22.38
61014;BME280;46899;47.542;19.082;2023-04-22T09:16:01;100327.91;;;25.20;22.65
61014;BME280;46899;47.542;19.082;2023-04-22T09:19:04;100337.59;;;24.55;22.95
61014;BME280;46899;47.542;19.082;2023-04-22T09:22:10;100325.34;;;24.06;23.76
61014;BME280;46899;47.542;19.082;2023-04-22T09:25:20;100329.97;;;24.23;23.24
61014;BME280;46899;47.542;19.082;2023-04-22T09:28:22;100333.16;;;24.27;23.55
61014;BME280;46899;47.542;19.082;2023-04-22T09:31:26;100325.31;;;23.97;24.00
61014;BME280;46899;47.542;19.082;2023-04-22T09:34:28;100333.69;;;23.92;23.51
61014;BME280;46899;47.542;19.082;2023-04-22T09:37:31;100327.91;;;23.19;24.44
61014;BME280;46899;47.542;19.082;2023-04-22T09:40:50;100328.63;;;22.90;24.84
61014;BME280;46899;47.542;19.082;2023-04-22T09:43:56;100321.34;;;23.62;24.37
61014;BME280;46899;47.542;19.082;2023-04-22T09:47:01;100323.47;;;23.29;24.44
61014;BME280;46899;47.542;19.082;2023-04-22T09:50:05;100308.22;;;23.70;24.60
61014;BME280;46899;47.542;19.082;2023-04-22T09:53:08;100299.56;;;23.97;24.08
61014;BME280;46899;47.542;19.082;2023-04-22T09:56:12;100303.75;;;23.80;24.35
61014;BME280;46899;47.542;19.082;2023-04-22T09:59:18;100305.44;;;24.01;24.49
61014;BME280;46899;47.542;19.082;2023-04-22T10:02:27;100299.78;;;24.61;23.94
61014;BME280;46899;47.542;19.082;2023-04-22T10:05:30;100286.41;;;24.90;23.60
61014;BME280;46899;47.542;19.082;2023-04-22T10:08:32;100292.25;;;25.03;23.68
61014;BME280;46899;47.542;19.082;2023-04-22T10:11:36;100290.84;;;24.53;23.83
61014;BME280;46899;47.542;19.082;2023-04-22T10:14:39;100280.09;;;23.68;25.07
61014;BME280;46899;47.542;19.082;2023-04-22T10:17:42;100278.59;;;22.35;25.90
61014;BME280;46899;47.542;19.082;2023-04-22T10:20:46;100274.81;;;21.96;27.04
61014;BME280;46899;47.542;19.082;2023-04-22T10:23:49;100274.75;;;22.69;26.25
61014;BME280;46899;47.542;19.082;2023-04-22T10:26:58;100267.34;;;23.43;24.99
61014;BME280;46899;47.542;19.082;2023-04-22T10:30:03;100257.72;;;23.61;25.08
61014;BME280;46899;47.542;19.082;2023-04-22T10:36:30;100265.09;;;22.68;26.65
61014;BME280;46899;47.542;19.082;2023-04-22T10:39:33;100260.13;;;22.33;27.48
61014;BME280;46899;47.542;19.082;2023-04-22T10:42:38;100258.22;;;22.86;26.18
61014;BME280;46899;47.542;19.082;2023-04-22T10:45:40;100256.06;;;23.60;25.32
61014;BME280;46899;47.542;19.082;2023-04-22T10:48:46;100250.31;;;24.12;25.47
61014;BME280;46899;47.542;19.082;2023-04-22T10:54:55;100253.28;;;24.65;23.93
61014;BME280;46899;47.542;19.082;2023-04-22T10:57:58;100249.81;;;24.92;23.63
61014;BME280;46899;47.542;19.082;2023-04-22T11:01:01;100251.56;;;25.10;23.20
61014;BME280;46899;47.542;19.082;2023-04-22T11:04:21;100250.41;;;24.86;23.60
61014;BME280;46899;47.542;19.082;2023-04-22T11:13:45;100240.78;;;23.43;24.99
61014;BME280;46899;47.542;19.082;2023-04-22T11:16:50;100242.47;;;23.72;25.18
61014;BME280;46899;47.542;19.082;2023-04-22T11:19:52;100242.75;;;24.17;24.34
61014;BME280;46899;47.542;19.082;2023-04-22T11:22:57;100250.00;;;24.34;24.40
61014;BME280;46899;47.542;19.082;2023-04-22T11:26:01;100245.28;;;24.19;24.25
61014;BME280;46899;47.542;19.082;2023-04-22T11:29:04;100234.13;;;24.42;24.01
61014;BME280;46899;47.542;19.082;2023-04-22T11:32:08;100241.84;;;24.45;24.50
61014;BME280;46899;47.542;19.082;2023-04-22T11:35:11;100242.19;;;23.85;24.90
61014;BME280;46899;47.542;19.082;2023-04-22T11:38:14;100238.41;;;23.40;24.96
61014;BME280;46899;47.542;19.082;2023-04-22T11:41:19;100230.97;;;23.34;24.73
61014;BME280;46899;47.542;19.082;2023-04-22T11:44:22;100233.84;;;23.11;25.80
61014;BME280;46899;47.542;19.082;2023-04-22T11:47:24;100237.84;;;22.87;25.01
61014;BME280;46899;47.542;19.082;2023-04-22T11:50:31;100231.78;;;23.25;24.52
61014;BME280;46899;47.542;19.082;2023-04-22T11:53:34;100243.72;;;24.26;23.48
61014;BME280;46899;47.542;19.082;2023-04-22T11:56:37;100237.50;;;24.54;22.82
61014;BME280;46899;47.542;19.082;2023-04-22T11:59:39;100240.37;;;24.80;22.16
61014;BME280;46899;47.542;19.082;2023-04-22T12:02:53;100235.78;;;24.63;22.80
61014;BME280;46899;47.542;19.082;2023-04-22T12:08:59;100237.22;;;24.94;22.91
61014;BME280;46899;47.542;19.082;2023-04-22T12:12:03;100231.53;;;25.06;22.23
61014;BME280;46899;47.542;19.082;2023-04-22T12:15:08;100219.97;;;24.61;21.90
61014;BME280;46899;47.542;19.082;2023-04-22T12:18:15;100223.34;;;25.35;21.86
61014;BME280;46899;47.542;19.082;2023-04-22T12:21:21;100219.91;;;25.25;22.47
61014;BME280;46899;47.542;19.082;2023-04-22T12:24:28;100223.03;;;25.48;21.03
61014;BME280;46899;47.542;19.082;2023-04-22T12:27:31;100216.81;;;26.00;21.22
61014;BME280;46899;47.542;19.082;2023-04-22T12:30:34;100217.69;;;25.83;21.24
61014;BME280;46899;47.542;19.082;2023-04-22T12:33:37;100209.03;;;25.46;21.37
61014;BME280;46899;47.542;19.082;2023-04-22T12:36:40;100215.66;;;25.32;21.17
61014;BME280;46899;47.542;19.082;2023-04-22T12:39:43;100203.81;;;25.44;21.59
61014;BME280;46899;47.542;19.082;2023-04-22T12:42:45;100210.22;;;25.06;21.98
61014;BME280;46899;47.542;19.082;2023-04-22T12:45:48;100212.06;;;24.69;22.53
61014;BME280;46899;47.542;19.082;2023-04-22T12:48:51;100209.22;;;24.43;22.41
61014;BME280;46899;47.542;19.082;2023-04-22T12:51:54;100204.84;;;23.87;23.31
61014;BME280;46899;47.542;19.082;2023-04-22T12:54:56;100202.75;;;23.90;23.93
61014;BME280;46899;47.542;19.082;2023-04-22T12:57:59;100198.84;;;23.65;23.96
61014;BME280;46899;47.542;19.082;2023-04-22T13:01:01;100203.44;;;23.44;24.35
61014;BME280;46899;47.542;19.082;2023-04-22T13:04:04;100193.72;;;23.05;24.54
61014;BME280;46899;47.542;19.082;2023-04-22T13:07:07;100191.16;;;22.54;25.33
61014;BME280;46899;47.542;19.082;2023-04-22T13:10:11;100189.59;;;22.42;25.21
61014;BME280;46899;47.542;19.082;2023-04-22T13:13:14;100184.72;;;22.77;24.70
61014;BME280;46899;47.542;19.082;2023-04-22T13:16:20;100183.63;;;22.89;24.40
61014;BME280;46899;47.542;19.082;2023-04-22T13:19:23;100178.88;;;22.53;25.01
61014;BME280;46899;47.542;19.082;2023-04-22T13:22:27;100178.28;;;22.70;25.15
61014;BME280;46899;47.542;19.082;2023-04-22T13:25:30;100186.00;;;22.53;25.85
61014;BME280;46899;47.542;19.082;2023-04-22T13:28:32;100183.06;;;22.56;25.09
61014;BME280;46899;47.542;19.082;2023-04-22T13:31:36;100177.53;;;22.38;25.52
61014;BME280;46899;47.542;19.082;2023-04-22T13:34:39;100176.28;;;22.63;25.33
61014;BME280;46899;47.542;19.082;2023-04-22T13:37:41;100178.66;;;22.35;25.63
61014;BME280;46899;47.542;19.082;2023-04-22T13:40:44;100174.44;;;22.33;25.88
61014;BME280;46899;47.542;19.082;2023-04-22T13:43:47;100172.06;;;22.30;25.56
61014;BME280;46899;47.542;19.082;2023-04-22T13:46:54;100171.34;;;22.58;25.21
61014;BME280;46899;47.542;19.082;2023-04-22T13:49:56;100169.56;;;22.59;24.80
61014;BME280;46899;47.542;19.082;2023-04-22T13:52:59;100171.78;;;22.54;25.38
61014;BME280;46899;47.542;19.082;2023-04-22T13:56:01;100164.88;;;22.41;25.00
61014;BME280;46899;47.542;19.082;2023-04-22T13:59:04;100168.19;;;22.34;25.27
61014;BME280;46899;47.542;19.082;2023-04-22T14:02:07;100165.94;;;22.29;25.70
61014;BME280;46899;47.542;19.082;2023-04-22T14:05:09;100164.62;;;22.24;25.78
61014;BME280;46899;47.542;19.082;2023-04-22T14:08:12;100164.78;;;22.22;25.82
61014;BME280;46899;47.542;19.082;2023-04-22T14:11:14;100159.88;;;22.18;26.56
61014;BME280;46899;47.542;19.082;2023-04-22T14:14:17;100157.84;;;22.31;26.82
61014;BME280;46899;47.542;19.082;2023-04-22T14:17:19;100154.31;;;22.21;25.69
61014;BME280;46899;47.542;19.082;2023-04-22T14:20:23;100160.88;;;21.96;26.59
61014;BME280;46899;47.542;19.082;2023-04-22T14:23:26;100164.03;;;21.90;26.66
61014;BME280;46899;47.542;19.082;2023-04-22T14:26:29;100160.59;;;21.78;26.42
61014;BME280;46899;47.542;19.082;2023-04-22T14:29:33;100155.00;;;21.61;26.63
61014;BME280;46899;47.542;19.082;2023-04-22T14:32:36;100158.75;;;21.38;26.69
61014;BME280;46899;47.542;19.082;2023-04-22T14:35:38;100156.72;;;21.30;26.90
61014;BME280;46899;47.542;19.082;2023-04-22T14:38:41;100154.84;;;21.21;27.40
61014;BME280;46899;47.542;19.082;2023-04-22T14:41:44;100154.22;;;21.18;27.69
61014;BME280;46899;47.542;19.082;2023-04-22T14:44:46;100145.84;;;21.12;27.71
61014;BME280;46899;47.542;19.082;2023-04-22T14:47:49;100155.13;;;21.07;28.42
61014;BME280;46899;47.542;19.082;2023-04-22T14:50:51;100151.53;;;20.86;28.04
61014;BME280;46899;47.542;19.082;2023-04-22T14:53:54;100150.06;;;20.93;27.96
61014;BME280;46899;47.542;19.082;2023-04-22T14:56:57;100152.81;;;21.02;28.16
61014;BME280;46899;47.542;19.082;2023-04-22T15:00:00;100152.47;;;20.96;27.62
61014;BME280;46899;47.542;19.082;2023-04-22T15:03:03;100147.53;;;21.02;28.13
61014;BME280;46899;47.542;19.082;2023-04-22T15:06:07;100142.37;;;20.90;28.31
61014;BME280;46899;47.542;19.082;2023-04-22T15:09:09;100147.66;;;21.12;28.73
61014;BME280;46899;47.542;19.082;2023-04-22T15:12:13;100136.34;;;21.10;28.32
61014;BME280;46899;47.542;19.082;2023-04-22T15:15:18;100145.72;;;21.03;28.04
61014;BME280;46899;47.542;19.082;2023-04-22T15:18:21;100144.81;;;20.82;28.38
61014;BME280;46899;47.542;19.082;2023-04-22T15:21:24;100145.53;;;20.73;28.64
61014;BME280;46899;47.542;19.082;2023-04-22T15:24:27;100151.03;;;20.92;28.53
61014;BME280;46899;47.542;19.082;2023-04-22T15:27:29;100143.81;;;20.94;28.21
61014;BME280;46899;47.542;19.082;2023-04-22T15:30:32;100141.63;;;20.99;28.53
61014;BME280;46899;47.542;19.082;2023-04-22T15:33:35;100140.94;;;20.86;28.80
61014;BME280;46899;47.542;19.082;2023-04-22T15:36:38;100146.63;;;20.59;28.70
61014;BME280;46899;47.542;19.082;2023-04-22T15:39:41;100146.03;;;20.44;29.17
61014;BME280;46899;47.542;19.082;2023-04-22T15:42:44;100147.25;;;20.40;29.22
61014;BME280;46899;47.542;19.082;2023-04-22T15:45:46;100144.72;;;20.28;29.87
61014;BME280;46899;47.542;19.082;2023-04-22T15:48:49;100140.47;;;20.14;30.98
61014;BME280;46899;47.542;19.082;2023-04-22T15:51:52;100147.91;;;19.98;30.31
61014;BME280;46899;47.542;19.082;2023-04-22T15:54:54;100144.41;;;19.87;30.15
61014;BME280;46899;47.542;19.082;2023-04-22T15:57:57;100150.41;;;19.89;30.40
61014;BME280;46899;47.542;19.082;2023-04-22T16:00:59;100150.28;;;19.79;30.71